sensor_id;sensor_type;location;lat;lon;timestamp;P1;durP1;ratioP1;P2;durP2;ratioP2
53022;SDS011;38913;44.338;11.206;2023-08-06T00:00:15;0.67;;;0.50;;
53022;SDS011;38913;44.338;11.206;2023-08-06T00:02:40;1.13;;;0.43;;
53022;SDS011;38913;44.338;11.206;2023-08-06T00:05:06;0.80;;;0.40;;
53022;SDS011;38913;44.338;11.206;2023-08-06T00:07:31;1.60;;;0.40;;
53022;SDS011;38913;44.338;11.206;2023-08-06T00:09:56;3.20;;;0.47;;
53022;SDS011;38913;44.338;11.206;2023-08-06T00:12:22;2.42;;;0.40;;
53022;SDS011;38913;44.338;11.206;2023-08-06T00:14:51;0.30;;;0.30;;
53022;SDS011;38913;44.338;11.206;2023-08-06T00:17:16;2.60;;;0.40;;
53022;SDS011;38913;44.338;11.206;2023-08-06T00:19:41;3.90;;;0.40;;
53022;SDS011;38913;44.338;11.206;2023-08-06T00:22:06;0.70;;;0.20;;
53022;SDS011;38913;44.338;11.206;2023-08-06T00:24:32;1.03;;;0.40;;
53022;SDS011;38913;44.338;11.206;2023-08-06T00:26:57;1.10;;;0.37;;
53022;SDS011;38913;44.338;11.206;2023-08-06T00:29:22;0.87;;;0.40;;
53022;SDS011;38913;44.338;11.206;2023-08-06T00:31:47;1.13;;;0.30;;
53022;SDS011;38913;44.338;11.206;2023-08-06T00:34:13;1.30;;;0.47;;
53022;SDS011;38913;44.338;11.206;2023-08-06T00:36:38;1.57;;;0.40;;
53022;SDS011;38913;44.338;11.206;2023-08-06T00:39:03;2.50;;;0.40;;
53022;SDS011;38913;44.338;11.206;2023-08-06T00:41:29;1.13;;;0.40;;
53022;SDS011;38913;44.338;11.206;2023-08-06T00:43:54;2.20;;;0.33;;
53022;SDS011;38913;44.338;11.206;2023-08-06T00:46:19;2.38;;;0.32;;
53022;SDS011;38913;44.338;11.206;2023-08-06T00:48:45;2.85;;;0.40;;
53022;SDS011;38913;44.338;11.206;2023-08-06T00:51:11;2.20;;;0.40;;
53022;SDS011;38913;44.338;11.206;2023-08-06T00:53:37;1.23;;;0.40;;
53022;SDS011;38913;44.338;11.206;2023-08-06T00:56:03;1.45;;;0.38;;
53022;SDS011;38913;44.338;11.206;2023-08-06T00:58:28;0.93;;;0.40;;
53022;SDS011;38913;44.338;11.206;2023-08-06T01:00:53;1.08;;;0.40;;
53022;SDS011;38913;44.338;11.206;2023-08-06T01:03:19;2.05;;;0.47;;
53022;SDS011;38913;44.338;11.206;2023-08-06T01:05:44;2.00;;;0.67;;
53022;SDS011;38913;44.338;11.206;2023-08-06T01:13:24;0.55;;;0.30;;
53022;SDS011;38913;44.338;11.206;2023-08-06T01:15:50;0.90;;;0.30;;
53022;SDS011;38913;44.338;11.206;2023-08-06T01:18:19;0.90;;;0.30;;
53022;SDS011;38913;44.338;11.206;2023-08-06T01:20:44;0.50;;;0.30;;
53022;SDS011;38913;44.338;11.206;2023-08-06T01:23:10;0.88;;;0.40;;
53022;SDS011;38913;44.338;11.206;2023-08-06T01:25:45;3.10;;;0.40;;
53022;SDS011;38913;44.338;11.206;2023-08-06T01:28:17;1.48;;;0.50;;
53022;SDS011;38913;44.338;11.206;2023-08-06T01:30:43;1.30;;;0.50;;
53022;SDS011;38913;44.338;11.206;2023-08-06T01:33:13;0.47;;;0.32;;
53022;SDS011;38913;44.338;11.206;2023-08-06T01:35:39;1.50;;;0.30;;
53022;SDS011;38913;44.338;11.206;2023-08-06T01:38:05;1.65;;;0.30;;
53022;SDS011;38913;44.338;11.206;2023-08-06T01:40:30;2.60;;;0.40;;
53022;SDS011;38913;44.338;11.206;2023-08-06T01:42:57;0.88;;;0.50;;
53022;SDS011;38913;44.338;11.206;2023-08-06T01:45:22;1.50;;;0.60;;
53022;SDS011;38913;44.338;11.206;2023-08-06T01:47:47;0.47;;;0.33;;
53022;SDS011;38913;44.338;11.206;2023-08-06T01:50:12;0.50;;;0.30;;
53022;SDS011;38913;44.338;11.206;2023-08-06T01:52:38;2.60;;;0.40;;
53022;SDS011;38913;44.338;11.206;2023-08-06T01:55:03;2.28;;;0.40;;
53022;SDS011;38913;44.338;11.206;2023-08-06T01:57:28;0.60;;;0.30;;
53022;SDS011;38913;44.338;11.206;2023-08-06T01:59:53;2.07;;;0.50;;
53022;SDS011;38913;44.338;11.206;2023-08-06T02:02:19;1.10;;;0.33;;
53022;SDS011;38913;44.338;11.206;2023-08-06T02:04:44;2.45;;;0.40;;
53022;SDS011;38913;44.338;11.206;2023-08-06T02:07:09;1.67;;;0.40;;
53022;SDS011;38913;44.338;11.206;2023-08-06T02:09:35;1.17;;;0.40;;
53022;SDS011;38913;44.338;11.206;2023-08-06T02:12:00;0.70;;;0.40;;
53022;SDS011;38913;44.338;11.206;2023-08-06T02:14:25;0.30;;;0.30;;
53022;SDS011;38913;44.338;11.206;2023-08-06T02:16:51;1.40;;;0.30;;
53022;SDS011;38913;44.338;11.206;2023-08-06T02:19:16;1.98;;;0.40;;
53022;SDS011;38913;44.338;11.206;2023-08-06T02:21:41;0.45;;;0.30;;
53022;SDS011;38913;44.338;11.206;2023-08-06T02:24:06;2.00;;;0.50;;
53022;SDS011;38913;44.338;11.206;2023-08-06T02:26:32;1.00;;;0.43;;
53022;SDS011;38913;44.338;11.206;2023-08-06T02:28:57;1.40;;;0.30;;
53022;SDS011;38913;44.338;11.206;2023-08-06T02:31:22;2.85;;;0.40;;
53022;SDS011;38913;44.338;11.206;2023-08-06T02:33:48;0.77;;;0.30;;
53022;SDS011;38913;44.338;11.206;2023-08-06T02:36:13;1.10;;;0.40;;
53022;SDS011;38913;44.338;11.206;2023-08-06T02:38:38;1.30;;;0.32;;
53022;SDS011;38913;44.338;11.206;2023-08-06T02:41:04;0.30;;;0.20;;
53022;SDS011;38913;44.338;11.206;2023-08-06T02:43:29;0.80;;;0.40;;
53022;SDS011;38913;44.338;11.206;2023-08-06T02:45:58;3.92;;;0.57;;
53022;SDS011;38913;44.338;11.206;2023-08-06T02:48:23;1.48;;;0.45;;
53022;SDS011;38913;44.338;11.206;2023-08-06T02:50:49;0.40;;;0.40;;
53022;SDS011;38913;44.338;11.206;2023-08-06T02:53:14;0.90;;;0.30;;
53022;SDS011;38913;44.338;11.206;2023-08-06T02:55:44;0.77;;;0.30;;
53022;SDS011;38913;44.338;11.206;2023-08-06T02:58:09;1.25;;;0.40;;
53022;SDS011;38913;44.338;11.206;2023-08-06T03:00:35;1.03;;;0.23;;
53022;SDS011;38913;44.338;11.206;2023-08-06T03:03:00;1.03;;;0.33;;
53022;SDS011;38913;44.338;11.206;2023-08-06T03:05:25;2.07;;;0.30;;
53022;SDS011;38913;44.338;11.206;2023-08-06T03:07:50;0.85;;;0.30;;
53022;SDS011;38913;44.338;11.206;2023-08-06T03:10:16;0.40;;;0.40;;
53022;SDS011;38913;44.338;11.206;2023-08-06T03:12:41;0.35;;;0.35;;
53022;SDS011;38913;44.338;11.206;2023-08-06T03:15:06;2.37;;;0.50;;
53022;SDS011;38913;44.338;11.206;2023-08-06T03:17:32;3.40;;;0.50;;
53022;SDS011;38913;44.338;11.206;2023-08-06T03:19:57;0.70;;;0.40;;
53022;SDS011;38913;44.338;11.206;2023-08-06T03:22:22;2.10;;;0.37;;
53022;SDS011;38913;44.338;11.206;2023-08-06T03:24:49;0.50;;;0.33;;
53022;SDS011;38913;44.338;11.206;2023-08-06T03:27:15;1.98;;;0.30;;
53022;SDS011;38913;44.338;11.206;2023-08-06T03:29:40;1.38;;;0.40;;
53022;SDS011;38913;44.338;11.206;2023-08-06T03:32:05;0.40;;;0.30;;
53022;SDS011;38913;44.338;11.206;2023-08-06T03:34:31;1.27;;;0.32;;
53022;SDS011;38913;44.338;11.206;2023-08-06T03:36:56;1.10;;;0.40;;
53022;SDS011;38913;44.338;11.206;2023-08-06T03:39:21;0.50;;;0.40;;
53022;SDS011;38913;44.338;11.206;2023-08-06T03:41:46;1.43;;;0.40;;
53022;SDS011;38913;44.338;11.206;2023-08-06T03:44:12;0.40;;;0.30;;
53022;SDS011;38913;44.338;11.206;2023-08-06T03:46:37;1.43;;;0.47;;
53022;SDS011;38913;44.338;11.206;2023-08-06T03:49:02;1.08;;;0.30;;
53022;SDS011;38913;44.338;11.206;2023-08-06T03:51:28;1.90;;;0.50;;
53022;SDS011;38913;44.338;11.206;2023-08-06T03:53:53;1.27;;;0.50;;
53022;SDS011;38913;44.338;11.206;2023-08-06T03:56:18;1.20;;;0.27;;
53022;SDS011;38913;44.338;11.206;2023-08-06T03:58:43;3.20;;;0.37;;
53022;SDS011;38913;44.338;11.206;2023-08-06T04:01:09;2.00;;;0.57;;
53022;SDS011;38913;44.338;11.206;2023-08-06T04:03:34;0.60;;;0.30;;
53022;SDS011;38913;44.338;11.206;2023-08-06T04:05:59;1.10;;;0.40;;
53022;SDS011;38913;44.338;11.206;2023-08-06T04:08:26;0.60;;;0.30;;
53022;SDS011;38913;44.338;11.206;2023-08-06T04:10:52;1.63;;;0.35;;
53022;SDS011;38913;44.338;11.206;2023-08-06T04:13:17;2.53;;;0.40;;
53022;SDS011;38913;44.338;11.206;2023-08-06T04:15:42;1.40;;;0.30;;
53022;SDS011;38913;44.338;11.206;2023-08-06T04:18:07;1.60;;;0.50;;
53022;SDS011;38913;44.338;11.206;2023-08-06T04:20:33;3.78;;;2.05;;
53022;SDS011;38913;44.338;11.206;2023-08-06T04:22:58;0.57;;;0.50;;
53022;SDS011;38913;44.338;11.206;2023-08-06T04:25:23;0.90;;;0.30;;
53022;SDS011;38913;44.338;11.206;2023-08-06T04:27:49;0.40;;;0.38;;
53022;SDS011;38913;44.338;11.206;2023-08-06T04:30:14;1.08;;;0.32;;
53022;SDS011;38913;44.338;11.206;2023-08-06T04:32:39;2.05;;;0.40;;
53022;SDS011;38913;44.338;11.206;2023-08-06T04:35:05;1.88;;;0.30;;
53022;SDS011;38913;44.338;11.206;2023-08-06T04:37:30;2.33;;;0.40;;
53022;SDS011;38913;44.338;11.206;2023-08-06T04:39:55;0.77;;;0.40;;
53022;SDS011;38913;44.338;11.206;2023-08-06T04:42:21;1.93;;;0.43;;
53022;SDS011;38913;44.338;11.206;2023-08-06T04:44:46;1.13;;;0.40;;
53022;SDS011;38913;44.338;11.206;2023-08-06T04:47:11;1.40;;;0.40;;
53022;SDS011;38913;44.338;11.206;2023-08-06T04:49:36;1.43;;;0.33;;
53022;SDS011;38913;44.338;11.206;2023-08-06T04:52:02;0.87;;;0.40;;
53022;SDS011;38913;44.338;11.206;2023-08-06T04:54:27;0.47;;;0.20;;
53022;SDS011;38913;44.338;11.206;2023-08-06T04:56:52;1.07;;;0.33;;
53022;SDS011;38913;44.338;11.206;2023-08-06T04:59:17;0.95;;;0.40;;
53022;SDS011;38913;44.338;11.206;2023-08-06T05:01:43;1.23;;;0.40;;
53022;SDS011;38913;44.338;11.206;2023-08-06T05:04:08;0.47;;;0.40;;
53022;SDS011;38913;44.338;11.206;2023-08-06T05:06:33;1.00;;;0.40;;
53022;SDS011;38913;44.338;11.206;2023-08-06T05:08:58;0.52;;;0.32;;
53022;SDS011;38913;44.338;11.206;2023-08-06T05:11:24;1.53;;;0.50;;
53022;SDS011;38913;44.338;11.206;2023-08-06T05:13:49;3.92;;;0.73;;
53022;SDS011;38913;44.338;11.206;2023-08-06T05:16:14;1.50;;;0.40;;
53022;SDS011;38913;44.338;11.206;2023-08-06T05:18:40;1.37;;;0.50;;
53022;SDS011;38913;44.338;11.206;2023-08-06T05:21:06;0.93;;;0.35;;
53022;SDS011;38913;44.338;11.206;2023-08-06T05:23:32;2.47;;;0.45;;
53022;SDS011;38913;44.338;11.206;2023-08-06T05:25:57;0.70;;;0.30;;
53022;SDS011;38913;44.338;11.206;2023-08-06T05:28:22;0.73;;;0.43;;
53022;SDS011;38913;44.338;11.206;2023-08-06T05:30:47;0.53;;;0.47;;
53022;SDS011;38913;44.338;11.206;2023-08-06T05:33:12;1.03;;;0.50;;
53022;SDS011;38913;44.338;11.206;2023-08-06T05:35:38;0.50;;;0.50;;
53022;SDS011;38913;44.338;11.206;2023-08-06T05:38:03;1.20;;;0.32;;
53022;SDS011;38913;44.338;11.206;2023-08-06T05:40:28;1.38;;;0.52;;
53022;SDS011;38913;44.338;11.206;2023-08-06T05:42:54;0.70;;;0.40;;
53022;SDS011;38913;44.338;11.206;2023-08-06T05:45:19;0.55;;;0.32;;
53022;SDS011;38913;44.338;11.206;2023-08-06T05:47:44;0.50;;;0.30;;
53022;SDS011;38913;44.338;11.206;2023-08-06T05:50:09;0.40;;;0.33;;
53022;SDS011;38913;44.338;11.206;2023-08-06T05:52:35;0.60;;;0.30;;
53022;SDS011;38913;44.338;11.206;2023-08-06T05:55:00;3.07;;;0.60;;
53022;SDS011;38913;44.338;11.206;2023-08-06T05:57:25;0.40;;;0.40;;
53022;SDS011;38913;44.338;11.206;2023-08-06T05:59:50;3.33;;;0.47;;
53022;SDS011;38913;44.338;11.206;2023-08-06T06:02:16;1.37;;;0.50;;
53022;SDS011;38913;44.338;11.206;2023-08-06T06:04:43;1.20;;;0.38;;
53022;SDS011;38913;44.338;11.206;2023-08-06T06:07:08;0.60;;;0.53;;
53022;SDS011;38913;44.338;11.206;2023-08-06T06:09:34;2.37;;;0.50;;
53022;SDS011;38913;44.338;11.206;2023-08-06T06:11:59;2.57;;;0.70;;
53022;SDS011;38913;44.338;11.206;2023-08-06T06:14:24;2.27;;;0.40;;
53022;SDS011;38913;44.338;11.206;2023-08-06T06:16:49;1.80;;;0.50;;
53022;SDS011;38913;44.338;11.206;2023-08-06T06:19:15;0.60;;;0.50;;
53022;SDS011;38913;44.338;11.206;2023-08-06T06:21:40;0.60;;;0.40;;
53022;SDS011;38913;44.338;11.206;2023-08-06T06:24:05;1.37;;;0.50;;
53022;SDS011;38913;44.338;11.206;2023-08-06T06:26:31;2.20;;;0.60;;
53022;SDS011;38913;44.338;11.206;2023-08-06T06:28:57;1.17;;;0.50;;
53022;SDS011;38913;44.338;11.206;2023-08-06T06:31:22;1.30;;;0.65;;
53022;SDS011;38913;44.338;11.206;2023-08-06T06:33:47;1.20;;;0.50;;
53022;SDS011;38913;44.338;11.206;2023-08-06T06:36:13;6.63;;;0.70;;
53022;SDS011;38913;44.338;11.206;2023-08-06T06:38:38;1.25;;;0.52;;
53022;SDS011;38913;44.338;11.206;2023-08-06T06:41:03;1.35;;;0.47;;
53022;SDS011;38913;44.338;11.206;2023-08-06T06:43:29;1.87;;;0.57;;
53022;SDS011;38913;44.338;11.206;2023-08-06T06:45:57;1.07;;;0.50;;
53022;SDS011;38913;44.338;11.206;2023-08-06T06:48:26;1.50;;;0.50;;
53022;SDS011;38913;44.338;11.206;2023-08-06T06:50:52;0.65;;;0.60;;
53022;SDS011;38913;44.338;11.206;2023-08-06T06:53:17;0.83;;;0.50;;
53022;SDS011;38913;44.338;11.206;2023-08-06T06:55:42;1.30;;;0.63;;
53022;SDS011;38913;44.338;11.206;2023-08-06T06:58:07;1.23;;;0.50;;
53022;SDS011;38913;44.338;11.206;2023-08-06T07:00:35;5.17;;;0.90;;
53022;SDS011;38913;44.338;11.206;2023-08-06T07:03:00;0.60;;;0.50;;
53022;SDS011;38913;44.338;11.206;2023-08-06T07:05:25;1.37;;;0.57;;
53022;SDS011;38913;44.338;11.206;2023-08-06T07:07:51;2.65;;;0.50;;
53022;SDS011;38913;44.338;11.206;2023-08-06T07:10:17;1.88;;;0.50;;
53022;SDS011;38913;44.338;11.206;2023-08-06T07:12:42;1.30;;;0.60;;
53022;SDS011;38913;44.338;11.206;2023-08-06T07:15:07;1.63;;;0.70;;
53022;SDS011;38913;44.338;11.206;2023-08-06T07:17:33;1.38;;;0.75;;
53022;SDS011;38913;44.338;11.206;2023-08-06T07:19:58;1.00;;;0.60;;
53022;SDS011;38913;44.338;11.206;2023-08-06T07:22:23;2.37;;;1.00;;
53022;SDS011;38913;44.338;11.206;2023-08-06T07:24:49;1.67;;;0.60;;
53022;SDS011;38913;44.338;11.206;2023-08-06T07:27:14;1.27;;;0.60;;
53022;SDS011;38913;44.338;11.206;2023-08-06T07:29:39;1.10;;;0.70;;
53022;SDS011;38913;44.338;11.206;2023-08-06T07:32:06;2.27;;;0.90;;
53022;SDS011;38913;44.338;11.206;2023-08-06T07:34:31;1.42;;;0.77;;
53022;SDS011;38913;44.338;11.206;2023-08-06T07:36:56;1.10;;;0.97;;
53022;SDS011;38913;44.338;11.206;2023-08-06T07:39:22;1.40;;;0.97;;
53022;SDS011;38913;44.338;11.206;2023-08-06T07:41:48;2.28;;;0.80;;
53022;SDS011;38913;44.338;11.206;2023-08-06T07:44:13;1.50;;;0.80;;
53022;SDS011;38913;44.338;11.206;2023-08-06T07:46:40;1.63;;;0.95;;
53022;SDS011;38913;44.338;11.206;2023-08-06T07:49:05;2.75;;;1.00;;
53022;SDS011;38913;44.338;11.206;2023-08-06T07:51:30;2.13;;;0.93;;
53022;SDS011;38913;44.338;11.206;2023-08-06T07:53:55;2.57;;;0.90;;
53022;SDS011;38913;44.338;11.206;2023-08-06T07:56:21;1.50;;;1.10;;
53022;SDS011;38913;44.338;11.206;2023-08-06T07:58:46;3.28;;;1.08;;
53022;SDS011;38913;44.338;11.206;2023-08-06T08:01:11;3.10;;;1.10;;
53022;SDS011;38913;44.338;11.206;2023-08-06T08:03:37;2.80;;;1.03;;
53022;SDS011;38913;44.338;11.206;2023-08-06T08:06:02;1.53;;;1.07;;
53022;SDS011;38913;44.338;11.206;2023-08-06T08:08:27;2.20;;;1.00;;
53022;SDS011;38913;44.338;11.206;2023-08-06T08:10:53;2.33;;;1.10;;
53022;SDS011;38913;44.338;11.206;2023-08-06T08:13:20;4.15;;;1.23;;
53022;SDS011;38913;44.338;11.206;2023-08-06T08:15:46;3.30;;;1.20;;
53022;SDS011;38913;44.338;11.206;2023-08-06T08:18:11;3.03;;;1.20;;
53022;SDS011;38913;44.338;11.206;2023-08-06T08:20:36;2.30;;;1.10;;
53022;SDS011;38913;44.338;11.206;2023-08-06T08:23:01;2.93;;;1.00;;
53022;SDS011;38913;44.338;11.206;2023-08-06T08:25:27;1.73;;;1.00;;
53022;SDS011;38913;44.338;11.206;2023-08-06T08:27:53;1.77;;;1.02;;
53022;SDS011;38913;44.338;11.206;2023-08-06T08:30:18;2.83;;;1.20;;
53022;SDS011;38913;44.338;11.206;2023-08-06T08:32:44;2.33;;;1.20;;
53022;SDS011;38913;44.338;11.206;2023-08-06T08:35:09;2.33;;;1.20;;
53022;SDS011;38913;44.338;11.206;2023-08-06T08:37:37;2.33;;;1.40;;
53022;SDS011;38913;44.338;11.206;2023-08-06T08:40:02;2.77;;;1.40;;
53022;SDS011;38913;44.338;11.206;2023-08-06T08:42:28;3.40;;;1.40;;
53022;SDS011;38913;44.338;11.206;2023-08-06T08:44:54;5.13;;;1.80;;
53022;SDS011;38913;44.338;11.206;2023-08-06T08:47:19;2.45;;;1.55;;
53022;SDS011;38913;44.338;11.206;2023-08-06T08:49:45;2.13;;;1.37;;
53022;SDS011;38913;44.338;11.206;2023-08-06T08:52:11;2.88;;;1.40;;
53022;SDS011;38913;44.338;11.206;2023-08-06T08:54:38;2.58;;;1.60;;
53022;SDS011;38913;44.338;11.206;2023-08-06T08:57:04;3.13;;;1.58;;
53022;SDS011;38913;44.338;11.206;2023-08-06T08:59:31;3.97;;;1.70;;
53022;SDS011;38913;44.338;11.206;2023-08-06T09:01:56;3.20;;;1.60;;
53022;SDS011;38913;44.338;11.206;2023-08-06T09:04:25;2.63;;;1.70;;
53022;SDS011;38913;44.338;11.206;2023-08-06T09:06:51;2.63;;;1.70;;
53022;SDS011;38913;44.338;11.206;2023-08-06T09:09:25;3.97;;;1.55;;
53022;SDS011;38913;44.338;11.206;2023-08-06T09:11:51;2.20;;;1.30;;
53022;SDS011;38913;44.338;11.206;2023-08-06T09:14:16;4.05;;;1.40;;
53022;SDS011;38913;44.338;11.206;2023-08-06T09:16:42;2.67;;;1.38;;
53022;SDS011;38913;44.338;11.206;2023-08-06T09:19:08;3.05;;;1.58;;
53022;SDS011;38913;44.338;11.206;2023-08-06T09:21:36;2.45;;;1.50;;
53022;SDS011;38913;44.338;11.206;2023-08-06T09:24:03;3.47;;;1.30;;
53022;SDS011;38913;44.338;11.206;2023-08-06T09:26:35;3.08;;;1.52;;
53022;SDS011;38913;44.338;11.206;2023-08-06T09:29:01;4.85;;;1.50;;
53022;SDS011;38913;44.338;11.206;2023-08-06T09:31:32;4.37;;;1.60;;
53022;SDS011;38913;44.338;11.206;2023-08-06T09:33:59;2.78;;;1.40;;
53022;SDS011;38913;44.338;11.206;2023-08-06T09:36:24;3.42;;;1.73;;
53022;SDS011;38913;44.338;11.206;2023-08-06T09:38:49;4.30;;;1.67;;
53022;SDS011;38913;44.338;11.206;2023-08-06T09:41:25;5.70;;;1.60;;
53022;SDS011;38913;44.338;11.206;2023-08-06T09:43:51;4.63;;;1.63;;
53022;SDS011;38913;44.338;11.206;2023-08-06T09:46:16;4.63;;;1.60;;
53022;SDS011;38913;44.338;11.206;2023-08-06T09:48:45;3.13;;;1.67;;
53022;SDS011;38913;44.338;11.206;2023-08-06T09:51:11;4.85;;;1.70;;
53022;SDS011;38913;44.338;11.206;2023-08-06T09:53:37;3.65;;;1.50;;
53022;SDS011;38913;44.338;11.206;2023-08-06T09:56:04;6.32;;;1.98;;
53022;SDS011;38913;44.338;11.206;2023-08-06T09:58:30;7.45;;;1.92;;
53022;SDS011;38913;44.338;11.206;2023-08-06T10:00:56;3.63;;;1.58;;
53022;SDS011;38913;44.338;11.206;2023-08-06T10:03:22;6.30;;;1.88;;
53022;SDS011;38913;44.338;11.206;2023-08-06T10:05:47;4.80;;;1.77;;
53022;SDS011;38913;44.338;11.206;2023-08-06T10:08:13;6.73;;;1.73;;
53022;SDS011;38913;44.338;11.206;2023-08-06T10:10:38;3.53;;;1.77;;
53022;SDS011;38913;44.338;11.206;2023-08-06T10:13:03;4.75;;;1.92;;
53022;SDS011;38913;44.338;11.206;2023-08-06T10:15:31;7.45;;;1.90;;
53022;SDS011;38913;44.338;11.206;2023-08-06T10:17:57;4.70;;;1.90;;
53022;SDS011;38913;44.338;11.206;2023-08-06T10:20:24;4.78;;;1.83;;
53022;SDS011;38913;44.338;11.206;2023-08-06T10:23:08;4.13;;;1.52;;
53022;SDS011;38913;44.338;11.206;2023-08-06T10:25:33;4.85;;;2.00;;
53022;SDS011;38913;44.338;11.206;2023-08-06T10:27:59;4.18;;;1.90;;
53022;SDS011;38913;44.338;11.206;2023-08-06T10:32:50;6.20;;;2.03;;
53022;SDS011;38913;44.338;11.206;2023-08-06T10:35:37;4.78;;;1.83;;
53022;SDS011;38913;44.338;11.206;2023-08-06T10:40:26;4.60;;;1.77;;
53022;SDS011;38913;44.338;11.206;2023-08-06T10:42:51;4.57;;;1.97;;
53022;SDS011;38913;44.338;11.206;2023-08-06T10:45:18;7.20;;;1.87;;
53022;SDS011;38913;44.338;11.206;2023-08-06T10:47:43;4.65;;;1.83;;
53022;SDS011;38913;44.338;11.206;2023-08-06T10:50:13;5.78;;;2.10;;
53022;SDS011;38913;44.338;11.206;2023-08-06T10:52:39;4.10;;;1.70;;
53022;SDS011;38913;44.338;11.206;2023-08-06T10:55:04;2.85;;;1.55;;
53022;SDS011;38913;44.338;11.206;2023-08-06T10:57:30;3.88;;;2.10;;
53022;SDS011;38913;44.338;11.206;2023-08-06T10:59:55;5.37;;;1.80;;
53022;SDS011;38913;44.338;11.206;2023-08-06T11:02:20;4.50;;;2.00;;
53022;SDS011;38913;44.338;11.206;2023-08-06T11:04:45;4.80;;;2.15;;
53022;SDS011;38913;44.338;11.206;2023-08-06T11:07:11;6.85;;;2.10;;
53022;SDS011;38913;44.338;11.206;2023-08-06T11:09:38;5.70;;;2.03;;
53022;SDS011;38913;44.338;11.206;2023-08-06T11:12:07;7.17;;;2.30;;
53022;SDS011;38913;44.338;11.206;2023-08-06T11:14:34;4.15;;;1.83;;
53022;SDS011;38913;44.338;11.206;2023-08-06T11:16:59;5.87;;;1.90;;
53022;SDS011;38913;44.338;11.206;2023-08-06T11:19:24;4.77;;;1.90;;
53022;SDS011;38913;44.338;11.206;2023-08-06T11:21:50;5.90;;;1.90;;
53022;SDS011;38913;44.338;11.206;2023-08-06T11:24:16;6.47;;;1.83;;
53022;SDS011;38913;44.338;11.206;2023-08-06T11:26:42;5.43;;;1.83;;
53022;SDS011;38913;44.338;11.206;2023-08-06T11:29:09;7.90;;;2.30;;
53022;SDS011;38913;44.338;11.206;2023-08-06T11:31:35;4.47;;;2.20;;
53022;SDS011;38913;44.338;11.206;2023-08-06T11:34:01;4.78;;;2.00;;
53022;SDS011;38913;44.338;11.206;2023-08-06T11:36:33;3.87;;;1.60;;
53022;SDS011;38913;44.338;11.206;2023-08-06T11:39:02;5.05;;;1.80;;
53022;SDS011;38913;44.338;11.206;2023-08-06T11:41:28;5.50;;;1.85;;
53022;SDS011;38913;44.338;11.206;2023-08-06T11:43:54;5.03;;;1.95;;
53022;SDS011;38913;44.338;11.206;2023-08-06T12:10:15;5.90;;;2.00;;
53022;SDS011;38913;44.338;11.206;2023-08-06T12:12:41;4.80;;;1.65;;
53022;SDS011;38913;44.338;11.206;2023-08-06T12:15:07;4.95;;;1.73;;
53022;SDS011;38913;44.338;11.206;2023-08-06T12:17:33;3.53;;;1.50;;
53022;SDS011;38913;44.338;11.206;2023-08-06T12:32:03;3.97;;;1.52;;
53022;SDS011;38913;44.338;11.206;2023-08-06T12:34:28;3.83;;;1.30;;
53022;SDS011;38913;44.338;11.206;2023-08-06T12:36:53;3.03;;;1.33;;
53022;SDS011;38913;44.338;11.206;2023-08-06T12:39:19;3.10;;;1.40;;
53022;SDS011;38913;44.338;11.206;2023-08-06T12:41:44;3.47;;;1.50;;
53022;SDS011;38913;44.338;11.206;2023-08-06T12:44:11;4.65;;;1.55;;
53022;SDS011;38913;44.338;11.206;2023-08-06T12:46:36;3.55;;;1.48;;
53022;SDS011;38913;44.338;11.206;2023-08-06T12:49:01;3.50;;;1.00;;
53022;SDS011;38913;44.338;11.206;2023-08-06T12:51:26;3.77;;;1.30;;
53022;SDS011;38913;44.338;11.206;2023-08-06T12:53:52;3.83;;;1.20;;
53022;SDS011;38913;44.338;11.206;2023-08-06T12:56:17;5.27;;;1.50;;
53022;SDS011;38913;44.338;11.206;2023-08-06T12:58:42;2.93;;;1.40;;
53022;SDS011;38913;44.338;11.206;2023-08-06T13:01:07;3.80;;;1.33;;
53022;SDS011;38913;44.338;11.206;2023-08-06T13:03:33;2.83;;;1.38;;
53022;SDS011;38913;44.338;11.206;2023-08-06T13:05:58;3.70;;;1.40;;
53022;SDS011;38913;44.338;11.206;2023-08-06T13:08:23;3.57;;;1.37;;
53022;SDS011;38913;44.338;11.206;2023-08-06T13:10:48;2.43;;;1.20;;
53022;SDS011;38913;44.338;11.206;2023-08-06T13:13:14;6.10;;;1.33;;
53022;SDS011;38913;44.338;11.206;2023-08-06T13:15:39;1.95;;;1.00;;
53022;SDS011;38913;44.338;11.206;2023-08-06T13:18:04;3.13;;;0.90;;
53022;SDS011;38913;44.338;11.206;2023-08-06T13:20:30;1.53;;;1.20;;
53022;SDS011;38913;44.338;11.206;2023-08-06T13:22:55;2.95;;;0.80;;
53022;SDS011;38913;44.338;11.206;2023-08-06T13:25:21;1.00;;;0.87;;
53022;SDS011;38913;44.338;11.206;2023-08-06T13:27:46;1.08;;;0.73;;
53022;SDS011;38913;44.338;11.206;2023-08-06T13:30:12;1.40;;;0.90;;
53022;SDS011;38913;44.338;11.206;2023-08-06T13:32:40;1.10;;;0.70;;
53022;SDS011;38913;44.338;11.206;2023-08-06T13:35:08;1.92;;;0.90;;
53022;SDS011;38913;44.338;11.206;2023-08-06T13:37:34;2.17;;;0.80;;
53022;SDS011;38913;44.338;11.206;2023-08-06T13:39:59;2.08;;;1.00;;
53022;SDS011;38913;44.338;11.206;2023-08-06T13:42:24;2.00;;;0.77;;
53022;SDS011;38913;44.338;11.206;2023-08-06T13:44:50;1.63;;;0.90;;
53022;SDS011;38913;44.338;11.206;2023-08-06T13:47:15;1.50;;;0.80;;
53022;SDS011;38913;44.338;11.206;2023-08-06T13:49:40;2.77;;;1.13;;
53022;SDS011;38913;44.338;11.206;2023-08-06T13:52:05;2.17;;;1.00;;
53022;SDS011;38913;44.338;11.206;2023-08-06T13:54:30;2.10;;;1.02;;
53022;SDS011;38913;44.338;11.206;2023-08-06T13:56:56;2.23;;;1.10;;
53022;SDS011;38913;44.338;11.206;2023-08-06T13:59:21;1.70;;;1.00;;
53022;SDS011;38913;44.338;11.206;2023-08-06T14:01:49;2.50;;;1.02;;
53022;SDS011;38913;44.338;11.206;2023-08-06T14:04:14;3.03;;;1.30;;
53022;SDS011;38913;44.338;11.206;2023-08-06T14:06:39;2.80;;;1.37;;
53022;SDS011;38913;44.338;11.206;2023-08-06T14:09:04;4.43;;;1.10;;
53022;SDS011;38913;44.338;11.206;2023-08-06T14:11:30;2.03;;;1.00;;
53022;SDS011;38913;44.338;11.206;2023-08-06T14:13:55;4.37;;;1.30;;
53022;SDS011;38913;44.338;11.206;2023-08-06T14:16:20;1.33;;;1.10;;
53022;SDS011;38913;44.338;11.206;2023-08-06T14:18:45;2.40;;;1.17;;
53022;SDS011;38913;44.338;11.206;2023-08-06T14:21:11;2.33;;;1.10;;
53022;SDS011;38913;44.338;11.206;2023-08-06T14:23:36;3.77;;;1.30;;
53022;SDS011;38913;44.338;11.206;2023-08-06T14:26:01;2.75;;;1.40;;
53022;SDS011;38913;44.338;11.206;2023-08-06T14:28:27;3.10;;;1.20;;
53022;SDS011;38913;44.338;11.206;2023-08-06T14:30:52;3.77;;;1.37;;
53022;SDS011;38913;44.338;11.206;2023-08-06T14:33:17;2.63;;;1.10;;
53022;SDS011;38913;44.338;11.206;2023-08-06T14:35:42;2.13;;;1.10;;
53022;SDS011;38913;44.338;11.206;2023-08-06T14:38:08;2.37;;;0.97;;
53022;SDS011;38913;44.338;11.206;2023-08-06T14:40:33;2.00;;;0.90;;
53022;SDS011;38913;44.338;11.206;2023-08-06T14:43:02;1.67;;;1.00;;
53022;SDS011;38913;44.338;11.206;2023-08-06T14:45:27;1.90;;;1.00;;
53022;SDS011;38913;44.338;11.206;2023-08-06T14:47:53;1.63;;;0.90;;
53022;SDS011;38913;44.338;11.206;2023-08-06T14:50:18;1.43;;;0.83;;
53022;SDS011;38913;44.338;11.206;2023-08-06T14:52:43;1.73;;;1.03;;
53022;SDS011;38913;44.338;11.206;2023-08-06T14:55:08;2.60;;;1.17;;
53022;SDS011;38913;44.338;11.206;2023-08-06T14:57:34;2.90;;;1.33;;
53022;SDS011;38913;44.338;11.206;2023-08-06T14:59:59;3.37;;;1.30;;
53022;SDS011;38913;44.338;11.206;2023-08-06T15:02:25;4.00;;;1.13;;
53022;SDS011;38913;44.338;11.206;2023-08-06T15:04:50;5.18;;;1.17;;
53022;SDS011;38913;44.338;11.206;2023-08-06T15:07:17;3.60;;;1.03;;
53022;SDS011;38913;44.338;11.206;2023-08-06T15:09:42;2.10;;;1.10;;